sensor_id;sensor_type;location;lat;lon;timestamp;temperature;humidity
11221;DHT22;8517;53.546;10.104;2023-02-14T00:01:08;9.40;99.90
11221;DHT22;8517;53.546;10.104;2023-02-14T00:03:35;9.40;99.90
11221;DHT22;8517;53.546;10.104;2023-02-14T00:06:06;9.40;99.90
11221;DHT22;8517;53.546;10.104;2023-02-14T00:08:33;9.40;99.90
11221;DHT22;8517;53.546;10.104;2023-02-14T00:11:01;9.40;99.90
11221;DHT22;8517;53.546;10.104;2023-02-14T00:13:29;9.30;99.90
11221;DHT22;8517;53.546;10.104;2023-02-14T00:16:02;9.30;99.90
11221;DHT22;8517;53.546;10.104;2023-02-14T00:18:28;9.30;99.90
11221;DHT22;8517;53.546;10.104;2023-02-14T00:21:09;9.30;99.90
11221;DHT22;8517;53.546;10.104;2023-02-14T00:23:36;9.30;99.90
11221;DHT22;8517;53.546;10.104;2023-02-14T00:26:03;9.30;99.90
11221;DHT22;8517;53.546;10.104;2023-02-14T00:28:31;9.30;99.90
11221;DHT22;8517;53.546;10.104;2023-02-14T00:31:00;9.30;99.90
11221;DHT22;8517;53.546;10.104;2023-02-14T00:33:27;9.20;99.90
11221;DHT22;8517;53.546;10.104;2023-02-14T00:35:54;9.20;99.90
11221;DHT22;8517;53.546;10.104;2023-02-14T00:38:21;9.20;99.90
11221;DHT22;8517;53.546;10.104;2023-02-14T00:40:47;9.20;99.90
11221;DHT22;8517;53.546;10.104;2023-02-14T00:43:14;9.20;99.90
11221;DHT22;8517;53.546;10.104;2023-02-14T00:45:42;9.20;99.90
11221;DHT22;8517;53.546;10.104;2023-02-14T00:48:09;9.20;99.90
11221;DHT22;8517;53.546;10.104;2023-02-14T00:50:36;9.10;99.90
11221;DHT22;8517;53.546;10.104;2023-02-14T00:53:06;9.10;99.90
11221;DHT22;8517;53.546;10.104;2023-02-14T00:55:43;9.20;99.90
11221;DHT22;8517;53.546;10.104;2023-02-14T00:58:10;9.10;99.90
11221;DHT22;8517;53.546;10.104;2023-02-14T01:00:38;9.10;99.90
11221;DHT22;8517;53.546;10.104;2023-02-14T01:03:06;9.10;99.90
11221;DHT22;8517;53.546;10.104;2023-02-14T01:05:33;9.10;99.90
11221;DHT22;8517;53.546;10.104;2023-02-14T01:08:00;9.10;99.90
11221;DHT22;8517;53.546;10.104;2023-02-14T01:10:27;9.10;99.90
11221;DHT22;8517;53.546;10.104;2023-02-14T01:12:53;9.00;99.90
11221;DHT22;8517;53.546;10.104;2023-02-14T01:15:20;9.00;99.90
11221;DHT22;8517;53.546;10.104;2023-02-14T01:17:47;9.00;99.90
11221;DHT22;8517;53.546;10.104;2023-02-14T01:47:21;8.90;99.90
11221;DHT22;8517;53.546;10.104;2023-02-14T01:49:51;8.90;99.90
11221;DHT22;8517;53.546;10.104;2023-02-14T01:52:22;8.90;99.90
11221;DHT22;8517;53.546;10.104;2023-02-14T01:54:53;8.90;99.90
11221;DHT22;8517;53.546;10.104;2023-02-14T01:57:23;8.90;99.90
11221;DHT22;8517;53.546;10.104;2023-02-14T01:59:54;8.90;99.90
11221;DHT22;8517;53.546;10.104;2023-02-14T02:02:44;8.90;99.90
11221;DHT22;8517;53.546;10.104;2023-02-14T02:05:12;8.90;99.90
11221;DHT22;8517;53.546;10.104;2023-02-14T02:07:41;8.80;99.90
11221;DHT22;8517;53.546;10.104;2023-02-14T02:10:08;8.80;99.90
11221;DHT22;8517;53.546;10.104;2023-02-14T02:12:36;8.80;99.90
11221;DHT22;8517;53.546;10.104;2023-02-14T02:15:03;8.80;99.90
11221;DHT22;8517;53.546;10.104;2023-02-14T02:17:38;8.80;99.90
11221;DHT22;8517;53.546;10.104;2023-02-14T02:20:29;8.80;99.90
11221;DHT22;8517;53.546;10.104;2023-02-14T02:26:18;8.70;99.90
11221;DHT22;8517;53.546;10.104;2023-02-14T02:29:12;8.70;99.90
11221;DHT22;8517;53.546;10.104;2023-02-14T02:35:19;8.70;99.90
11221;DHT22;8517;53.546;10.104;2023-02-14T02:38:03;8.70;99.90
11221;DHT22;8517;53.546;10.104;2023-02-14T02:40:42;8.70;99.90
11221;DHT22;8517;53.546;10.104;2023-02-14T02:43:19;8.60;99.90
11221;DHT22;8517;53.546;10.104;2023-02-14T02:45:57;8.60;99.90
11221;DHT22;8517;53.546;10.104;2023-02-14T02:48:47;8.60;99.90
11221;DHT22;8517;53.546;10.104;2023-02-14T02:51:22;8.60;99.90
11221;DHT22;8517;53.546;10.104;2023-02-14T02:54:15;8.60;99.90
11221;DHT22;8517;53.546;10.104;2023-02-14T02:56:46;8.60;99.90
11221;DHT22;8517;53.546;10.104;2023-02-14T02:59:17;8.60;99.90
11221;DHT22;8517;53.546;10.104;2023-02-14T03:01:49;8.50;99.90
11221;DHT22;8517;53.546;10.104;2023-02-14T03:04:17;8.50;99.90
11221;DHT22;8517;53.546;10.104;2023-02-14T03:07:03;8.60;99.90
11221;DHT22;8517;53.546;10.104;2023-02-14T03:09:56;8.50;99.90
11221;DHT22;8517;53.546;10.104;2023-02-14T03:12:45;8.50;99.90
11221;DHT22;8517;53.546;10.104;2023-02-14T03:15:21;8.50;99.90
11221;DHT22;8517;53.546;10.104;2023-02-14T03:17:57;8.50;99.90
11221;DHT22;8517;53.546;10.104;2023-02-14T03:20:35;8.50;99.90
11221;DHT22;8517;53.546;10.104;2023-02-14T03:23:08;8.50;99.90
11221;DHT22;8517;53.546;10.104;2023-02-14T03:25:42;8.50;99.90
11221;DHT22;8517;53.546;10.104;2023-02-14T03:28:16;8.40;99.90
11221;DHT22;8517;53.546;10.104;2023-02-14T03:30:47;8.40;99.90
11221;DHT22;8517;53.546;10.104;2023-02-14T03:33:19;8.40;99.90
11221;DHT22;8517;53.546;10.104;2023-02-14T03:35:53;8.40;99.90
11221;DHT22;8517;53.546;10.104;2023-02-14T03:38:31;8.40;99.90
11221;DHT22;8517;53.546;10.104;2023-02-14T03:41:02;8.40;99.90
11221;DHT22;8517;53.546;10.104;2023-02-14T03:43:32;8.40;99.90
11221;DHT22;8517;53.546;10.104;2023-02-14T03:46:04;8.40;99.90
11221;DHT22;8517;53.546;10.104;2023-02-14T03:48:33;8.50;99.90
11221;DHT22;8517;53.546;10.104;2023-02-14T03:51:02;8.40;99.90
11221;DHT22;8517;53.546;10.104;2023-02-14T03:53:34;8.50;99.90
11221;DHT22;8517;53.546;10.104;2023-02-14T03:56:07;8.50;99.90
11221;DHT22;8517;53.546;10.104;2023-02-14T03:58:37;8.40;99.90
11221;DHT22;8517;53.546;10.104;2023-02-14T04:01:09;8.40;99.90
11221;DHT22;8517;53.546;10.104;2023-02-14T04:03:38;8.40;99.90
11221;DHT22;8517;53.546;10.104;2023-02-14T04:06:18;8.40;99.90
11221;DHT22;8517;53.546;10.104;2023-02-14T04:08:46;8.40;99.90
11221;DHT22;8517;53.546;10.104;2023-02-14T04:11:13;8.40;99.90
11221;DHT22;8517;53.546;10.104;2023-02-14T04:13:40;8.40;99.90
11221;DHT22;8517;53.546;10.104;2023-02-14T04:16:07;8.40;99.90
11221;DHT22;8517;53.546;10.104;2023-02-14T04:18:34;8.40;99.90
11221;DHT22;8517;53.546;10.104;2023-02-14T04:21:19;8.40;99.90
11221;DHT22;8517;53.546;10.104;2023-02-14T04:23:47;8.40;99.90
11221;DHT22;8517;53.546;10.104;2023-02-14T04:26:32;8.40;99.90
11221;DHT22;8517;53.546;10.104;2023-02-14T04:28:59;8.50;99.90
11221;DHT22;8517;53.546;10.104;2023-02-14T04:31:26;8.50;99.90
11221;DHT22;8517;53.546;10.104;2023-02-14T04:33:53;8.50;99.90
11221;DHT22;8517;53.546;10.104;2023-02-14T04:36:19;8.50;99.90
11221;DHT22;8517;53.546;10.104;2023-02-14T04:38:48;8.50;99.90
11221;DHT22;8517;53.546;10.104;2023-02-14T04:41:14;8.50;99.90
11221;DHT22;8517;53.546;10.104;2023-02-14T04:43:43;8.50;99.90
11221;DHT22;8517;53.546;10.104;2023-02-14T04:46:10;8.50;99.90
11221;DHT22;8517;53.546;10.104;2023-02-14T04:48:37;8.50;99.90
11221;DHT22;8517;53.546;10.104;2023-02-14T04:51:04;8.50;99.90
11221;DHT22;8517;53.546;10.104;2023-02-14T04:53:31;8.40;99.90
11221;DHT22;8517;53.546;10.104;2023-02-14T04:55:59;8.40;99.90
11221;DHT22;8517;53.546;10.104;2023-02-14T04:58:26;8.30;99.90
11221;DHT22;8517;53.546;10.104;2023-02-14T05:00:52;8.40;99.90
11221;DHT22;8517;53.546;10.104;2023-02-14T05:03:19;8.30;99.90
11221;DHT22;8517;53.546;10.104;2023-02-14T05:05:46;8.40;99.90
11221;DHT22;8517;53.546;10.104;2023-02-14T05:08:13;8.30;99.90
11221;DHT22;8517;53.546;10.104;2023-02-14T05:10:40;8.30;99.90
11221;DHT22;8517;53.546;10.104;2023-02-14T05:13:08;8.30;99.90
11221;DHT22;8517;53.546;10.104;2023-02-14T05:15:34;8.30;99.90
11221;DHT22;8517;53.546;10.104;2023-02-14T05:18:01;8.30;99.90
11221;DHT22;8517;53.546;10.104;2023-02-14T05:20:30;8.30;99.90
11221;DHT22;8517;53.546;10.104;2023-02-14T05:22:57;8.30;99.90
11221;DHT22;8517;53.546;10.104;2023-02-14T05:25:27;8.30;99.90
11221;DHT22;8517;53.546;10.104;2023-02-14T05:27:54;8.30;99.90
11221;DHT22;8517;53.546;10.104;2023-02-14T05:30:22;8.30;99.90
11221;DHT22;8517;53.546;10.104;2023-02-14T05:32:52;8.30;99.90
11221;DHT22;8517;53.546;10.104;2023-02-14T05:35:35;8.30;99.90
11221;DHT22;8517;53.546;10.104;2023-02-14T05:38:02;8.30;99.90
11221;DHT22;8517;53.546;10.104;2023-02-14T05:40:29;8.30;99.90
11221;DHT22;8517;53.546;10.104;2023-02-14T05:42:56;8.30;99.90
11221;DHT22;8517;53.546;10.104;2023-02-14T05:45:24;8.30;99.90
11221;DHT22;8517;53.546;10.104;2023-02-14T05:47:52;8.30;99.90
11221;DHT22;8517;53.546;10.104;2023-02-14T05:50:20;8.40;99.90
11221;DHT22;8517;53.546;10.104;2023-02-14T05:52:47;8.40;99.90
11221;DHT22;8517;53.546;10.104;2023-02-14T05:55:17;8.40;99.90
11221;DHT22;8517;53.546;10.104;2023-02-14T05:57:43;8.30;99.90
11221;DHT22;8517;53.546;10.104;2023-02-14T06:00:12;8.40;99.90
11221;DHT22;8517;53.546;10.104;2023-02-14T06:02:40;8.30;99.90
11221;DHT22;8517;53.546;10.104;2023-02-14T06:05:15;8.30;99.90
11221;DHT22;8517;53.546;10.104;2023-02-14T06:07:53;8.30;99.90
11221;DHT22;8517;53.546;10.104;2023-02-14T06:10:23;8.30;99.90
11221;DHT22;8517;53.546;10.104;2023-02-14T06:12:51;8.30;99.90
11221;DHT22;8517;53.546;10.104;2023-02-14T06:15:19;8.30;99.90
11221;DHT22;8517;53.546;10.104;2023-02-14T06:17:51;8.30;99.90
11221;DHT22;8517;53.546;10.104;2023-02-14T06:20:18;8.30;99.90
11221;DHT22;8517;53.546;10.104;2023-02-14T06:22:45;8.30;99.90
11221;DHT22;8517;53.546;10.104;2023-02-14T06:25:12;8.30;99.90
11221;DHT22;8517;53.546;10.104;2023-02-14T06:27:39;8.30;99.90
11221;DHT22;8517;53.546;10.104;2023-02-14T06:30:08;8.30;99.90
11221;DHT22;8517;53.546;10.104;2023-02-14T06:32:35;8.30;99.90
11221;DHT22;8517;53.546;10.104;2023-02-14T06:35:03;8.30;99.90
11221;DHT22;8517;53.546;10.104;2023-02-14T06:37:30;8.30;99.90
11221;DHT22;8517;53.546;10.104;2023-02-14T06:39:57;8.30;99.90
11221;DHT22;8517;53.546;10.104;2023-02-14T06:42:24;8.40;99.90
11221;DHT22;8517;53.546;10.104;2023-02-14T06:44:51;8.40;99.90
11221;DHT22;8517;53.546;10.104;2023-02-14T06:47:19;8.40;99.90
11221;DHT22;8517;53.546;10.104;2023-02-14T06:49:45;8.40;99.90
11221;DHT22;8517;53.546;10.104;2023-02-14T06:52:14;8.40;99.90
11221;DHT22;8517;53.546;10.104;2023-02-14T06:54:40;8.40;99.90
11221;DHT22;8517;53.546;10.104;2023-02-14T06:57:16;8.40;99.90
11221;DHT22;8517;53.546;10.104;2023-02-14T07:00:17;8.40;99.90
11221;DHT22;8517;53.546;10.104;2023-02-14T07:02:44;8.40;99.90
11221;DHT22;8517;53.546;10.104;2023-02-14T07:05:11;8.40;99.90
11221;DHT22;8517;53.546;10.104;2023-02-14T07:07:41;8.40;99.90
11221;DHT22;8517;53.546;10.104;2023-02-14T07:10:08;8.40;99.90
11221;DHT22;8517;53.546;10.104;2023-02-14T07:12:36;8.40;99.90
11221;DHT22;8517;53.546;10.104;2023-02-14T07:15:04;8.50;99.90
11221;DHT22;8517;53.546;10.104;2023-02-14T07:17:33;8.40;99.90
11221;DHT22;8517;53.546;10.104;2023-02-14T07:20:00;8.40;99.90
11221;DHT22;8517;53.546;10.104;2023-02-14T07:22:27;8.50;99.90
11221;DHT22;8517;53.546;10.104;2023-02-14T07:24:55;8.50;99.90
11221;DHT22;8517;53.546;10.104;2023-02-14T07:27:22;8.50;99.90
11221;DHT22;8517;53.546;10.104;2023-02-14T07:29:49;8.50;99.90
11221;DHT22;8517;53.546;10.104;2023-02-14T07:32:16;8.60;99.90
11221;DHT22;8517;53.546;10.104;2023-02-14T07:34:43;8.60;99.90
11221;DHT22;8517;53.546;10.104;2023-02-14T07:37:10;8.60;99.90
11221;DHT22;8517;53.546;10.104;2023-02-14T07:39:36;8.60;99.90
11221;DHT22;8517;53.546;10.104;2023-02-14T07:42:05;8.60;99.90
11221;DHT22;8517;53.546;10.104;2023-02-14T07:44:32;8.60;99.90
11221;DHT22;8517;53.546;10.104;2023-02-14T07:46:59;8.70;99.90
11221;DHT22;8517;53.546;10.104;2023-02-14T07:49:26;8.70;99.90
11221;DHT22;8517;53.546;10.104;2023-02-14T07:51:53;8.70;99.90
11221;DHT22;8517;53.546;10.104;2023-02-14T07:54:20;8.80;99.90
11221;DHT22;8517;53.546;10.104;2023-02-14T07:56:46;8.80;99.90
11221;DHT22;8517;53.546;10.104;2023-02-14T07:59:14;8.80;99.90
11221;DHT22;8517;53.546;10.104;2023-02-14T08:01:41;8.90;99.90
11221;DHT22;8517;53.546;10.104;2023-02-14T08:04:09;8.90;99.90
11221;DHT22;8517;53.546;10.104;2023-02-14T08:06:38;8.90;99.90
11221;DHT22;8517;53.546;10.104;2023-02-14T08:09:08;9.00;99.90
11221;DHT22;8517;53.546;10.104;2023-02-14T08:11:35;9.00;99.90
11221;DHT22;8517;53.546;10.104;2023-02-14T08:14:22;9.10;99.90
11221;DHT22;8517;53.546;10.104;2023-02-14T08:16:48;9.20;99.90
11221;DHT22;8517;53.546;10.104;2023-02-14T08:19:15;9.30;99.90
11221;DHT22;8517;53.546;10.104;2023-02-14T08:21:42;9.30;99.90
11221;DHT22;8517;53.546;10.104;2023-02-14T08:24:09;9.40;99.90
11221;DHT22;8517;53.546;10.104;2023-02-14T08:26:36;9.50;99.90
11221;DHT22;8517;53.546;10.104;2023-02-14T08:29:02;9.60;99.90
11221;DHT22;8517;53.546;10.104;2023-02-14T08:31:31;9.80;99.90
11221;DHT22;8517;53.546;10.104;2023-02-14T08:33:58;9.80;99.90
11221;DHT22;8517;53.546;10.104;2023-02-14T08:36:24;9.90;99.90
11221;DHT22;8517;53.546;10.104;2023-02-14T08:38:51;10.10;99.90
11221;DHT22;8517;53.546;10.104;2023-02-14T08:41:19;10.20;99.90
11221;DHT22;8517;53.546;10.104;2023-02-14T08:43:46;10.30;99.90
11221;DHT22;8517;53.546;10.104;2023-02-14T08:46:13;10.40;99.90
11221;DHT22;8517;53.546;10.104;2023-02-14T08:48:43;10.50;99.90
11221;DHT22;8517;53.546;10.104;2023-02-14T08:51:12;10.60;99.90
11221;DHT22;8517;53.546;10.104;2023-02-14T08:53:40;10.70;99.90
11221;DHT22;8517;53.546;10.104;2023-02-14T08:56:08;10.80;99.90
11221;DHT22;8517;53.546;10.104;2023-02-14T08:58:35;11.00;99.90
11221;DHT22;8517;53.546;10.104;2023-02-14T09:01:07;11.10;99.90
11221;DHT22;8517;53.546;10.104;2023-02-14T09:03:34;11.30;99.90
11221;DHT22;8517;53.546;10.104;2023-02-14T09:06:03;11.40;99.90
11221;DHT22;8517;53.546;10.104;2023-02-14T09:08:30;11.50;99.90
11221;DHT22;8517;53.546;10.104;2023-02-14T09:11:04;11.60;99.90
11221;DHT22;8517;53.546;10.104;2023-02-14T09:13:31;11.80;99.90
11221;DHT22;8517;53.546;10.104;2023-02-14T09:16:02;11.90;99.90
11221;DHT22;8517;53.546;10.104;2023-02-14T09:18:32;12.20;99.90
11221;DHT22;8517;53.546;10.104;2023-02-14T09:21:28;12.30;99.90
11221;DHT22;8517;53.546;10.104;2023-02-14T09:23:55;12.40;99.90
11221;DHT22;8517;53.546;10.104;2023-02-14T09:26:22;12.40;99.90
11221;DHT22;8517;53.546;10.104;2023-02-14T09:28:53;12.40;99.90
11221;DHT22;8517;53.546;10.104;2023-02-14T09:31:22;12.40;99.90
11221;DHT22;8517;53.546;10.104;2023-02-14T09:33:50;12.40;99.90
11221;DHT22;8517;53.546;10.104;2023-02-14T09:36:17;12.30;99.90
11221;DHT22;8517;53.546;10.104;2023-02-14T09:39:03;12.20;99.90
11221;DHT22;8517;53.546;10.104;2023-02-14T09:41:45;12.10;99.90
11221;DHT22;8517;53.546;10.104;2023-02-14T09:44:22;12.10;99.90
11221;DHT22;8517;53.546;10.104;2023-02-14T09:46:53;12.20;99.90
11221;DHT22;8517;53.546;10.104;2023-02-14T09:49:30;12.20;99.90
11221;DHT22;8517;53.546;10.104;2023-02-14T09:52:01;12.20;99.90
11221;DHT22;8517;53.546;10.104;2023-02-14T09:54:32;12.30;99.90
11221;DHT22;8517;53.546;10.104;2023-02-14T09:57:04;12.30;99.90
11221;DHT22;8517;53.546;10.104;2023-02-14T09:59:38;12.40;99.90
11221;DHT22;8517;53.546;10.104;2023-02-14T10:02:27;12.50;99.90
11221;DHT22;8517;53.546;10.104;2023-02-14T10:05:02;12.70;99.90
11221;DHT22;8517;53.546;10.104;2023-02-14T10:07:40;12.80;99.90
11221;DHT22;8517;53.546;10.104;2023-02-14T10:10:15;12.80;99.90
11221;DHT22;8517;53.546;10.104;2023-02-14T10:12:49;12.80;99.90
11221;DHT22;8517;53.546;10.104;2023-02-14T10:15:20;12.90;99.90
11221;DHT22;8517;53.546;10.104;2023-02-14T10:17:50;13.00;99.90
11221;DHT22;8517;53.546;10.104;2023-02-14T10:20:22;13.10;99.90
11221;DHT22;8517;53.546;10.104;2023-02-14T10:22:56;13.00;99.90
11221;DHT22;8517;53.546;10.104;2023-02-14T10:25:29;13.00;99.90
11221;DHT22;8517;53.546;10.104;2023-02-14T10:28:00;13.00;99.90
11221;DHT22;8517;53.546;10.104;2023-02-14T10:30:36;13.10;99.90
11221;DHT22;8517;53.546;10.104;2023-02-14T10:33:07;13.10;99.90
11221;DHT22;8517;53.546;10.104;2023-02-14T10:35:41;13.10;99.90
11221;DHT22;8517;53.546;10.104;2023-02-14T10:38:18;13.20;99.90
11221;DHT22;8517;53.546;10.104;2023-02-14T10:41:09;13.20;99.90
11221;DHT22;8517;53.546;10.104;2023-02-14T10:43:45;13.30;99.90
11221;DHT22;8517;53.546;10.104;2023-02-14T10:46:25;13.50;99.90
11221;DHT22;8517;53.546;10.104;2023-02-14T10:48:57;13.60;99.90
11221;DHT22;8517;53.546;10.104;2023-02-14T10:51:31;13.70;99.90
11221;DHT22;8517;53.546;10.104;2023-02-14T10:54:12;13.70;99.90
11221;DHT22;8517;53.546;10.104;2023-02-14T10:56:47;13.70;99.90
11221;DHT22;8517;53.546;10.104;2023-02-14T10:59:18;13.50;99.90
11221;DHT22;8517;53.546;10.104;2023-02-14T11:01:48;13.50;99.90
11221;DHT22;8517;53.546;10.104;2023-02-14T11:04:18;13.50;99.90
11221;DHT22;8517;53.546;10.104;2023-02-14T11:06:45;13.50;99.90
11221;DHT22;8517;53.546;10.104;2023-02-14T11:09:14;13.60;99.90
11221;DHT22;8517;53.546;10.104;2023-02-14T11:11:45;13.80;99.90
11221;DHT22;8517;53.546;10.104;2023-02-14T11:14:23;14.10;99.90
11221;DHT22;8517;53.546;10.104;2023-02-14T11:16:51;14.20;99.90
11221;DHT22;8517;53.546;10.104;2023-02-14T11:19:24;14.30;99.90
11221;DHT22;8517;53.546;10.104;2023-02-14T11:21:53;14.40;99.90
11221;DHT22;8517;53.546;10.104;2023-02-14T11:24:26;14.40;99.90
11221;DHT22;8517;53.546;10.104;2023-02-14T11:26:57;14.30;99.90
11221;DHT22;8517;53.546;10.104;2023-02-14T11:29:27;14.30;99.90
11221;DHT22;8517;53.546;10.104;2023-02-14T11:31:55;14.30;99.90
11221;DHT22;8517;53.546;10.104;2023-02-14T11:34:32;14.20;99.90
11221;DHT22;8517;53.546;10.104;2023-02-14T11:37:01;14.00;99.90
11221;DHT22;8517;53.546;10.104;2023-02-14T11:39:29;14.00;99.90
11221;DHT22;8517;53.546;10.104;2023-02-14T11:42:00;14.10;99.90
11221;DHT22;8517;53.546;10.104;2023-02-14T11:44:30;14.30;99.90
11221;DHT22;8517;53.546;10.104;2023-02-14T11:47:16;14.60;99.90
11221;DHT22;8517;53.546;10.104;2023-02-14T11:49:54;14.70;99.90
11221;DHT22;8517;53.546;10.104;2023-02-14T11:52:21;14.80;99.90
11221;DHT22;8517;53.546;10.104;2023-02-14T11:54:52;14.90;99.90
11221;DHT22;8517;53.546;10.104;2023-02-14T11:57:23;15.00;99.90
11221;DHT22;8517;53.546;10.104;2023-02-14T11:59:54;15.20;99.90
11221;DHT22;8517;53.546;10.104;2023-02-14T12:02:28;15.30;99.90
11221;DHT22;8517;53.546;10.104;2023-02-14T12:05:02;15.40;99.90
11221;DHT22;8517;53.546;10.104;2023-02-14T12:07:31;15.30;99.90
11221;DHT22;8517;53.546;10.104;2023-02-14T12:10:29;15.30;99.90
11221;DHT22;8517;53.546;10.104;2023-02-14T12:13:02;15.20;99.90
11221;DHT22;8517;53.546;10.104;2023-02-14T12:15:48;15.00;99.90
11221;DHT22;8517;53.546;10.104;2023-02-14T12:18:58;14.90;99.90
11221;DHT22;8517;53.546;10.104;2023-02-14T12:21:38;14.80;99.90
11221;DHT22;8517;53.546;10.104;2023-02-14T12:24:15;14.80;99.90
11221;DHT22;8517;53.546;10.104;2023-02-14T12:26:46;14.70;99.90
11221;DHT22;8517;53.546;10.104;2023-02-14T12:29:21;14.70;99.90
11221;DHT22;8517;53.546;10.104;2023-02-14T12:32:30;14.60;99.90
11221;DHT22;8517;53.546;10.104;2023-02-14T12:35:14;14.50;99.90
11221;DHT22;8517;53.546;10.104;2023-02-14T12:37:50;14.50;99.90
11221;DHT22;8517;53.546;10.104;2023-02-14T12:40:29;14.50;99.90
11221;DHT22;8517;53.546;10.104;2023-02-14T12:43:14;14.50;99.90
11221;DHT22;8517;53.546;10.104;2023-02-14T12:45:58;14.60;99.90
11221;DHT22;8517;53.546;10.104;2023-02-14T12:48:37;14.60;99.90
11221;DHT22;8517;53.546;10.104;2023-02-14T12:51:08;14.70;99.90
11221;DHT22;8517;53.546;10.104;2023-02-14T12:53:50;14.70;99.90
11221;DHT22;8517;53.546;10.104;2023-02-14T12:56:27;14.60;99.90
11221;DHT22;8517;53.546;10.104;2023-02-14T12:59:06;14.50;99.90
11221;DHT22;8517;53.546;10.104;2023-02-14T13:02:10;14.50;99.90
11221;DHT22;8517;53.546;10.104;2023-02-14T13:04:51;14.50;99.90
11221;DHT22;8517;53.546;10.104;2023-02-14T13:07:30;14.50;99.90
11221;DHT22;8517;53.546;10.104;2023-02-14T13:10:13;14.60;99.90
11221;DHT22;8517;53.546;10.104;2023-02-14T13:12:48;14.70;99.90
11221;DHT22;8517;53.546;10.104;2023-02-14T13:15:23;14.80;99.90
11221;DHT22;8517;53.546;10.104;2023-02-14T13:17:58;15.00;99.90
11221;DHT22;8517;53.546;10.104;2023-02-14T13:20:41;15.10;99.90
11221;DHT22;8517;53.546;10.104;2023-02-14T13:26:19;15.20;99.90
11221;DHT22;8517;53.546;10.104;2023-02-14T13:28:49;15.20;99.90
11221;DHT22;8517;53.546;10.104;2023-02-14T13:31:39;15.20;99.90
11221;DHT22;8517;53.546;10.104;2023-02-14T13:34:42;15.30;99.90
11221;DHT22;8517;53.546;10.104;2023-02-14T13:37:24;15.30;99.90
11221;DHT22;8517;53.546;10.104;2023-02-14T13:40:27;15.30;99.90
11221;DHT22;8517;53.546;10.104;2023-02-14T13:46:50;15.60;99.90
11221;DHT22;8517;53.546;10.104;2023-02-14T13:49:24;15.80;99.90
11221;DHT22;8517;53.546;10.104;2023-02-14T13:51:58;15.90;99.90
11221;DHT22;8517;53.546;10.104;2023-02-14T13:54:34;15.80;99.90
11221;DHT22;8517;53.546;10.104;2023-02-14T13:57:30;15.90;99.90
11221;DHT22;8517;53.546;10.104;2023-02-14T14:00:34;15.90;99.90
11221;DHT22;8517;53.546;10.104;2023-02-14T14:03:02;15.80;99.90
11221;DHT22;8517;53.546;10.104;2023-02-14T14:06:01;15.70;99.90
11221;DHT22;8517;53.546;10.104;2023-02-14T14:11:49;15.30;99.90
11221;DHT22;8517;53.546;10.104;2023-02-14T14:17:33;15.00;99.90
11221;DHT22;8517;53.546;10.104;2023-02-14T14:20:48;14.80;99.90
11221;DHT22;8517;53.546;10.104;2023-02-14T14:23:34;14.60;99.90
11221;DHT22;8517;53.546;10.104;2023-02-14T14:29:08;14.40;99.90
11221;DHT22;8517;53.546;10.104;2023-02-14T14:31:36;14.30;99.90
11221;DHT22;8517;53.546;10.104;2023-02-14T14:34:06;14.20;99.90
11221;DHT22;8517;53.546;10.104;2023-02-14T14:36:45;14.10;99.90
11221;DHT22;8517;53.546;10.104;2023-02-14T14:39:26;14.00;99.90
11221;DHT22;8517;53.546;10.104;2023-02-14T14:41:55;13.90;99.90
11221;DHT22;8517;53.546;10.104;2023-02-14T14:44:44;13.90;99.90
11221;DHT22;8517;53.546;10.104;2023-02-14T14:47:16;13.80;99.90
11221;DHT22;8517;53.546;10.104;2023-02-14T14:50:15;13.70;99.90
11221;DHT22;8517;53.546;10.104;2023-02-14T14:52:59;13.60;99.90
11221;DHT22;8517;53.546;10.104;2023-02-14T14:55:30;13.60;99.90
11221;DHT22;8517;53.546;10.104;2023-02-14T14:58:06;13.60;99.90
11221;DHT22;8517;53.546;10.104;2023-02-14T15:00:36;13.50;99.90
11221;DHT22;8517;53.546;10.104;2023-02-14T15:03:14;13.50;99.90
11221;DHT22;8517;53.546;10.104;2023-02-14T15:05:46;13.40;99.90
11221;DHT22;8517;53.546;10.104;2023-02-14T15:08:19;13.50;99.90
11221;DHT22;8517;53.546;10.104;2023-02-14T15:10:48;13.40;99.90
11221;DHT22;8517;53.546;10.104;2023-02-14T15:13:16;13.40;99.90
11221;DHT22;8517;53.546;10.104;2023-02-14T15:16:17;13.40;99.90
11221;DHT22;8517;53.546;10.104;2023-02-14T15:18:50;13.40;99.90
11221;DHT22;8517;53.546;10.104;2023-02-14T15:21:19;13.40;99.90
11221;DHT22;8517;53.546;10.104;2023-02-14T15:23:49;13.30;99.90
11221;DHT22;8517;53.546;10.104;2023-02-14T15:26:26;13.30;99.90
11221;DHT22;8517;53.546;10.104;2023-02-14T15:29:19;13.30;99.90
11221;DHT22;8517;53.546;10.104;2023-02-14T15:31:47;13.30;99.90
11221;DHT22;8517;53.546;10.104;2023-02-14T15:34:23;13.30;99.90
11221;DHT22;8517;53.546;10.104;2023-02-14T15:36:53;13.30;99.90
11221;DHT22;8517;53.546;10.104;2023-02-14T15:39:32;13.30;99.90
11221;DHT22;8517;53.546;10.104;2023-02-14T15:42:01;13.30;99.90
11221;DHT22;8517;53.546;10.104;2023-02-14T15:44:29;13.20;99.90
11221;DHT22;8517;53.546;10.104;2023-02-14T15:47:00;13.20;99.90
11221;DHT22;8517;53.546;10.104;2023-02-14T15:49:42;13.10;99.90
11221;DHT22;8517;53.546;10.104;2023-02-14T15:52:13;13.10;99.90
11221;DHT22;8517;53.546;10.104;2023-02-14T15:54:42;13.00;99.90
11221;DHT22;8517;53.546;10.104;2023-02-14T15:57:19;13.00;99.90
11221;DHT22;8517;53.546;10.104;2023-02-14T15:59:48;12.90;99.90
11221;DHT22;8517;53.546;10.104;2023-02-14T16:02:34;12.90;99.90
11221;DHT22;8517;53.546;10.104;2023-02-14T16:05:06;12.90;99.90
11221;DHT22;8517;53.546;10.104;2023-02-14T16:07:34;12.80;99.90
11221;DHT22;8517;53.546;10.104;2023-02-14T16:10:19;12.70;99.90
11221;DHT22;8517;53.546;10.104;2023-02-14T16:12:54;12.70;99.90
11221;DHT22;8517;53.546;10.104;2023-02-14T16:15:23;12.60;99.90
11221;DHT22;8517;53.546;10.104;2023-02-14T16:17:50;12.60;99.90
11221;DHT22;8517;53.546;10.104;2023-02-14T16:20:27;12.60;99.90
11221;DHT22;8517;53.546;10.104;2023-02-14T16:23:13;12.50;99.90
11221;DHT22;8517;53.546;10.104;2023-02-14T16:25:40;12.50;99.90
11221;DHT22;8517;53.546;10.104;2023-02-14T16:28:07;12.40;99.90
11221;DHT22;8517;53.546;10.104;2023-02-14T16:30:34;12.30;99.90
11221;DHT22;8517;53.546;10.104;2023-02-14T16:33:01;12.30;99.90
11221;DHT22;8517;53.546;10.104;2023-02-14T16:35:29;12.20;99.90
11221;DHT22;8517;53.546;10.104;2023-02-14T16:37:56;12.20;99.90
11221;DHT22;8517;53.546;10.104;2023-02-14T16:40:25;12.10;99.90
11221;DHT22;8517;53.546;10.104;2023-02-14T16:42:53;12.10;99.90
11221;DHT22;8517;53.546;10.104;2023-02-14T16:45:20;12.00;99.90
11221;DHT22;8517;53.546;10.104;2023-02-14T16:47:47;12.00;99.90
11221;DHT22;8517;53.546;10.104;2023-02-14T16:50:15;11.90;99.90
11221;DHT22;8517;53.546;10.104;2023-02-14T16:52:46;11.90;99.90
11221;DHT22;8517;53.546;10.104;2023-02-14T16:55:17;11.80;99.90
11221;DHT22;8517;53.546;10.104;2023-02-14T16:57:46;11.80;99.90
11221;DHT22;8517;53.546;10.104;2023-02-14T17:00:16;11.70;99.90
11221;DHT22;8517;53.546;10.104;2023-02-14T17:02:43;11.60;99.90